Four Oaks, Kentucky
Current Conditions -  °F | °C
As of 3:53 PM on Tuesday 27 Jan 2015 (Local Time) from KLUK Reporting Station
Clear Clear  
Wind Chill: 21°   Ceiling: Unl
Heat Index: 30°   Visibility: 10mi
Dew Point: 14°   Wind: 10mph
Humidity: 51%   Direction: 350°N
Pressure: 30.14"   Gusts: NA
Location:  38.6506°N, 84.351°W
Report Text: KLUK 272053Z 35009KT 10SM CLR M01/M10 A3014 RMK AO2 SLP212 T10111100 53008
Loading
Personal Weather Stations






























Interactive Weather Map New forecast layout! Learn more

10-Day Weather Forecast

Advertisements
Track Severe Weather on mobile